Time;durP1;ratioP1;P1;durP2;ratioP2;P2;SDS_P1;SDS_P2;PMS_P1;PMS_P2;Temp;Humidity;BMP_temperature;BMP_pressure;BME280_temperature;BME280_humidity;BME280_pressure;Samples;Min_cycle;Max_cycle;Signal;HPM_P1;HPM_P2
2023/08/14 00:00:54;;;;;;;4.72;4.32;;;;;;;18.09;75.76;101516.19;5044562;28;20108;-71
2023/08/14 00:03:19;;;;;;;6.68;3.55;;;;;;;17.97;75.40;101513.38;5040650;28;20033;-71
2023/08/14 00:05:45;;;;;;;6.28;4.18;;;;;;;17.77;76.24;101511.91;5051022;28;20024;-71
2023/08/14 00:08:10;;;;;;;8.73;5.38;;;;;;;17.62;78.10;101512.75;5051479;28;20374;-71
2023/08/14 00:10:35;;;;;;;6.55;4.32;;;;;;;17.60;77.79;101510.19;5049104;28;20013;-71
2023/08/14 00:13:00;;;;;;;3.88;3.30;;;;;;;17.71;77.02;101510.41;5048192;28;20415;-71
2023/08/14 00:15:26;;;;;;;6.82;4.03;;;;;;;17.75;76.95;101511.97;5046819;28;20052;-71
2023/08/14 00:17:51;;;;;;;7.90;5.22;;;;;;;17.62;76.93;101510.94;5045621;28;20374;-71
2023/08/14 00:20:17;;;;;;;9.38;5.45;;;;;;;17.44;77.56;101509.34;5051755;28;20029;-71
2023/08/14 00:22:42;;;;;;;4.35;3.17;;;;;;;17.52;77.80;101509.75;5048729;28;20039;-71
2023/08/14 00:25:09;;;;;;;3.75;3.38;;;;;;;17.68;76.82;101505.25;5049745;28;20039;-71
2023/08/14 00:27:34;;;;;;;5.32;4.07;;;;;;;17.82;76.19;101494.63;5046017;28;20400;-71
2023/08/14 00:30:01;;;;;;;5.60;4.03;;;;;;;17.81;76.50;101498.25;5057571;28;20036;-71
2023/08/14 00:32:26;;;;;;;8.02;4.75;;;;;;;17.78;76.63;101497.56;5046803;28;20044;-71
2023/08/14 00:34:51;;;;;;;7.75;5.97;;;;;;;17.69;77.25;101496.28;5048107;28;20024;-71
2023/08/14 00:37:16;;;;;;;9.10;6.43;;;;;;;17.71;77.14;101494.34;5055031;28;20122;-71
2023/08/14 00:39:42;;;;;;;5.50;4.10;;;;;;;17.77;76.49;101493.19;5053562;28;20029;-71
2023/08/14 00:42:07;;;;;;;4.68;3.33;;;;;;;17.88;76.35;101500.56;5053608;28;20514;-71
2023/08/14 00:44:32;;;;;;;6.65;4.53;;;;;;;17.96;75.94;101501.81;5055281;28;20035;-70
2023/08/14 00:46:57;;;;;;;6.97;4.00;;;;;;;18.00;76.03;101500.69;5039054;28;20129;-71
2023/08/14 00:49:23;;;;;;;3.97;3.63;;;;;;;18.04;75.30;101504.00;5054401;28;20032;-71
2023/08/14 00:51:48;;;;;;;7.45;3.90;;;;;;;18.09;75.57;101499.25;5049992;28;20029;-71
2023/08/14 00:54:14;;;;;;;7.90;4.30;;;;;;;18.06;76.09;101502.13;5055056;28;20501;-71
2023/08/14 00:56:40;;;;;;;8.25;3.92;;;;;;;18.05;76.03;101495.06;5050433;28;20060;-71
2023/08/14 00:59:09;;;;;;;4.28;3.65;;;;;;;18.09;75.89;101493.88;5051767;28;20468;-71
2023/08/14 01:01:34;;;;;;;4.97;3.53;;;;;;;18.05;76.06;101495.06;5050285;28;20503;-68
2023/08/14 01:04:00;;;;;;;7.20;5.43;;;;;;;18.06;76.09;101492.28;5047695;28;20098;-69
2023/08/14 01:06:25;;;;;;;4.82;4.00;;;;;;;18.15;75.44;101492.66;5034913;22;20060;-71
2023/08/14 01:08:50;;;;;;;9.15;4.57;;;;;;;18.23;74.91;101487.69;5012464;28;20044;-71
2023/08/14 01:11:28;;;;;;;4.82;4.00;;;;;;;18.29;74.68;101479.28;5015596;28;20257;-71
2023/08/14 01:14:16;;;;;;;5.78;3.90;;;;;;;18.34;74.48;101479.88;5010526;28;20026;-71
2023/08/14 01:16:47;;;;;;;5.57;4.05;;;;;;;18.39;74.07;101480.44;5010855;28;20034;-71
2023/08/14 01:19:22;;;;;;;6.50;4.10;;;;;;;18.40;74.38;101476.78;5015716;28;20060;-71
2023/08/14 01:21:53;;;;;;;8.43;4.05;;;;;;;18.33;74.23;101472.78;5016990;28;20128;-71
2023/08/14 01:24:40;;;;;;;12.70;5.68;;;;;;;18.29;74.54;101472.13;5017244;28;20030;-71
2023/08/14 01:27:07;;;;;;;6.07;3.70;;;;;;;18.17;75.04;101477.38;5016900;28;20044;-71
2023/08/14 01:29:33;;;;;;;8.15;5.25;;;;;;;18.15;75.39;101466.75;5019659;28;20032;-71
2023/08/14 01:31:59;;;;;;;6.80;5.80;;;;;;;18.01;76.06;101467.63;5020832;28;20038;-71
2023/08/14 01:34:24;;;;;;;9.95;5.97;;;;;;;18.01;76.09;101464.94;5017407;28;20029;-71
2023/08/14 01:37:17;;;;;;;10.32;7.10;;;;;;;18.01;75.46;101470.28;5023025;28;20084;-71
2023/08/14 01:40:09;;;;;;;8.65;6.03;;;;;;;17.93;75.66;101459.19;5014675;28;20039;-71
2023/08/14 01:42:37;;;;;;;14.05;6.93;;;;;;;17.79;76.51;101465.38;5022025;28;20487;-71
2023/08/14 01:45:12;;;;;;;12.07;7.22;;;;;;;17.81;76.32;101460.81;5010396;28;20033;-71
2023/08/14 01:47:39;;;;;;;8.90;6.65;;;;;;;17.82;76.49;101453.66;5006748;28;20493;-71
2023/08/14 01:50:06;;;;;;;6.38;5.40;;;;;;;17.83;76.47;101447.34;5016397;28;20057;-71
2023/08/14 01:52:32;;;;;;;6.93;5.22;;;;;;;17.87;75.89;101440.00;5019812;28;20120;-71
2023/08/14 01:55:00;;;;;;;5.95;5.45;;;;;;;17.88;75.45;101437.22;5011678;28;20108;-71
2023/08/14 01:57:26;;;;;;;9.00;6.57;;;;;;;17.87;75.26;101435.50;5013354;28;20033;-71
2023/08/14 01:59:51;;;;;;;8.10;5.57;;;;;;;17.85;75.78;101443.59;5017184;28;20022;-72
2023/08/14 02:02:16;;;;;;;12.60;6.53;;;;;;;17.82;76.26;101442.94;5010619;28;20033;-71
2023/08/14 02:04:42;;;;;;;9.73;6.30;;;;;;;17.76;76.15;101432.59;5012038;28;20030;-71
2023/08/14 02:07:09;;;;;;;10.05;7.13;;;;;;;17.54;76.87;101433.88;5003462;28;20039;-71
2023/08/14 02:09:35;;;;;;;9.98;6.47;;;;;;;17.51;76.49;101433.19;5012884;28;20034;-71
2023/08/14 02:12:00;;;;;;;11.23;6.78;;;;;;;17.44;77.12;101434.50;5012090;28;20566;-71
2023/08/14 02:14:25;;;;;;;10.35;6.32;;;;;;;17.35;78.13;101427.91;5013777;28;20037;-71
2023/08/14 02:16:51;;;;;;;7.70;5.97;;;;;;;17.27;78.59;101423.00;4992559;28;20033;-71
2023/08/14 02:19:16;;;;;;;8.40;6.20;;;;;;;17.27;78.43;101424.81;5009419;28;20591;-71
2023/08/14 02:21:41;;;;;;;9.20;5.88;;;;;;;17.35;78.58;101427.91;5020874;28;20048;-71
2023/08/14 02:24:07;;;;;;;7.97;5.25;;;;;;;17.41;77.53;101427.53;5015571;28;20033;-71
2023/08/14 02:26:33;;;;;;;6.47;4.63;;;;;;;17.49;76.86;101419.06;5016810;28;20037;-71
2023/08/14 02:28:58;;;;;;;5.88;4.60;;;;;;;17.55;76.30;101424.03;5010575;28;20116;-71
2023/08/14 02:31:23;;;;;;;8.20;4.68;;;;;;;17.58;75.59;101423.88;5012904;28;20028;-71
2023/08/14 02:33:48;;;;;;;7.40;4.43;;;;;;;17.56;75.49;101415.91;5018300;28;20034;-71
2023/08/14 02:36:14;;;;;;;7.57;4.60;;;;;;;17.58;76.04;101408.69;5012732;28;20040;-71
2023/08/14 02:38:39;;;;;;;8.05;5.15;;;;;;;17.55;76.09;101397.31;5016518;28;20508;-71
2023/08/14 02:41:06;;;;;;;7.57;4.38;;;;;;;17.57;75.42;101414.09;5010188;28;20026;-71
2023/08/14 02:43:31;;;;;;;8.75;5.53;;;;;;;17.49;76.51;101408.38;5014505;28;20030;-71
2023/08/14 02:45:57;;;;;;;6.22;5.50;;;;;;;17.45;76.32;101404.16;5012856;28;20029;-71
2023/08/14 02:48:23;;;;;;;8.18;5.43;;;;;;;17.47;76.18;101407.59;5008104;28;20500;-71
2023/08/14 02:50:48;;;;;;;6.07;5.10;;;;;;;17.43;76.30;101404.22;5013005;28;20063;-71
2023/08/14 02:53:14;;;;;;;8.85;5.55;;;;;;;17.36;76.13;101407.38;5010531;28;20500;-71
2023/08/14 02:55:39;;;;;;;6.57;5.30;;;;;;;17.34;76.34;101413.66;5012818;28;20029;-71
2023/08/14 02:58:04;;;;;;;7.07;5.20;;;;;;;17.19;77.30;101414.56;5015978;28;20030;-71
2023/08/14 03:00:29;;;;;;;9.57;6.65;;;;;;;16.93;78.15;101412.56;5011771;28;20104;-71
2023/08/14 03:02:55;;;;;;;6.43;5.78;;;;;;;16.80;78.56;101407.06;5008458;28;20136;-71
2023/08/14 03:05:20;;;;;;;6.05;5.45;;;;;;;16.83;78.38;101402.41;5006618;28;20037;-71
2023/08/14 03:07:45;;;;;;;8.20;6.05;;;;;;;16.83;78.23;101410.44;5011632;28;20045;-71
2023/08/14 03:10:11;;;;;;;7.97;5.57;;;;;;;16.81;78.09;101414.97;5007021;28;20049;-71
2023/08/14 03:12:36;;;;;;;7.50;5.22;;;;;;;16.92;77.76;101411.69;5011226;28;20096;-71
2023/08/14 03:15:01;;;;;;;8.77;5.70;;;;;;;16.82;78.78;101400.69;5007191;28;20084;-71
2023/08/14 03:17:27;;;;;;;6.10;4.75;;;;;;;16.87;77.35;101410.22;5013911;28;20025;-71
2023/08/14 03:19:52;;;;;;;5.85;4.72;;;;;;;16.86;77.65;101403.19;5007511;28;20096;-71
2023/08/14 03:22:17;;;;;;;9.00;5.50;;;;;;;16.86;77.68;101405.84;5007386;28;20037;-71
2023/08/14 03:24:43;;;;;;;7.95;5.20;;;;;;;16.87;77.39;101415.56;5013281;28;20037;-71
2023/08/14 03:27:08;;;;;;;8.95;5.95;;;;;;;16.85;78.00;101418.34;5006133;28;20057;-71
2023/08/14 03:29:36;;;;;;;8.40;5.80;;;;;;;16.90;77.73;101418.94;5013814;28;20036;-68
2023/08/14 03:32:01;;;;;;;6.43;5.82;;;;;;;16.95;77.83;101410.66;5017016;28;20517;-69
2023/08/14 03:34:27;;;;;;;10.43;7.30;;;;;;;16.94;79.44;101412.47;5014414;28;20377;-68
2023/08/14 03:36:52;;;;;;;10.13;6.72;;;;;;;16.89;80.15;101403.88;5005631;28;20040;-69
2023/08/14 03:39:17;;;;;;;9.07;6.78;;;;;;;16.92;79.67;101401.00;5012915;28;20034;-68
2023/08/14 03:41:44;;;;;;;9.05;6.90;;;;;;;16.94;79.39;101400.94;5015413;28;20028;-69
2023/08/14 03:44:09;;;;;;;8.20;6.57;;;;;;;16.93;78.97;101400.06;5012846;28;20057;-68
2023/08/14 03:46:35;;;;;;;11.30;7.25;;;;;;;16.92;78.81;101408.16;5013390;28;20048;-68
2023/08/14 03:49:00;;;;;;;9.80;6.75;;;;;;;16.93;80.17;101407.22;5016987;28;20427;-68
2023/08/14 03:51:25;;;;;;;11.45;8.65;;;;;;;16.87;81.00;101410.22;5014180;28;20026;-68
2023/08/14 03:53:51;;;;;;;9.38;8.02;;;;;;;16.87;80.29;101410.22;5010330;28;20037;-69
2023/08/14 03:56:16;;;;;;;11.80;8.88;;;;;;;16.87;81.14;101415.56;5009425;28;20508;-68
2023/08/14 03:58:41;;;;;;;11.15;7.55;;;;;;;16.87;81.18;101412.91;5016412;28;20675;-68
2023/08/14 04:01:06;;;;;;;10.88;7.65;;;;;;;16.81;78.98;101412.31;4988928;28;20022;-68
2023/08/14 04:03:32;;;;;;;11.02;7.93;;;;;;;16.78;80.89;101396.44;5009513;28;20129;-68
2023/08/14 04:05:57;;;;;;;11.45;7.72;;;;;;;16.77;80.19;101400.06;5006737;28;20092;-68
2023/08/14 04:08:23;;;;;;;9.05;6.60;;;;;;;16.76;79.28;101409.03;5003510;28;20073;-69
2023/08/14 04:10:57;;;;;;;9.00;5.75;;;;;;;16.82;78.65;101402.47;5015800;28;20041;-69
2023/08/14 04:13:22;;;;;;;8.43;6.38;;;;;;;16.82;78.08;101406.00;5008924;28;20052;-69
2023/08/14 04:15:47;;;;;;;7.60;5.65;;;;;;;16.83;78.27;101405.09;5005342;28;20029;-69
2023/08/14 04:18:13;;;;;;;8.93;6.28;;;;;;;16.82;77.48;101403.34;5011978;28;20053;-69
2023/08/14 04:20:38;;;;;;;7.28;5.35;;;;;;;16.84;77.66;101389.94;5012176;28;20016;-69
2023/08/14 04:23:03;;;;;;;9.73;6.28;;;;;;;16.86;77.55;101392.50;5020105;28;20481;-69
2023/08/14 04:25:28;;;;;;;8.50;5.95;;;;;;;16.86;77.32;101388.00;4989275;28;20121;-69
2023/08/14 04:27:54;;;;;;;8.65;6.35;;;;;;;16.88;77.67;101387.91;5015135;28;20072;-69
2023/08/14 04:30:19;;;;;;;8.25;6.30;;;;;;;16.84;78.48;101387.25;5003585;28;20193;-68
2023/08/14 04:32:45;;;;;;;7.75;6.15;;;;;;;16.82;78.12;101387.31;5004781;28;20041;-69
2023/08/14 04:35:10;;;;;;;8.73;5.95;;;;;;;16.83;78.89;101385.50;5005310;28;20076;-69
2023/08/14 04:37:36;;;;;;;8.52;6.30;;;;;;;16.83;79.20;101381.06;5012643;28;20025;-69
2023/08/14 04:40:02;;;;;;;7.53;6.82;;;;;;;16.85;79.03;101372.94;5009148;28;20030;-68
2023/08/14 04:42:27;;;;;;;10.55;6.90;;;;;;;16.88;78.47;101383.47;5004243;28;20464;-69
2023/08/14 04:44:52;;;;;;;9.90;5.93;;;;;;;16.96;78.00;101377.66;5009319;28;20030;-68
2023/08/14 04:47:17;;;;;;;6.18;5.57;;;;;;;16.98;76.92;101365.94;5014889;28;20022;-69
2023/08/14 04:49:43;;;;;;;6.72;5.13;;;;;;;17.01;76.54;101367.56;5013390;28;20029;-69
2023/08/14 04:52:08;;;;;;;6.68;5.45;;;;;;;17.04;76.91;101370.91;5005471;28;20030;-68
2023/08/14 04:54:34;;;;;;;5.00;4.50;;;;;;;17.05;76.99;101374.44;5011372;28;20061;-69
2023/08/14 04:57:00;;;;;;;5.72;4.80;;;;;;;17.04;76.97;101368.25;5004607;28;20515;-69
2023/08/14 04:59:25;;;;;;;6.25;4.55;;;;;;;17.11;77.34;101360.72;5008861;28;20034;-68
2023/08/14 05:01:50;;;;;;;5.90;4.18;;;;;;;17.14;78.78;101357.00;5011519;28;20048;-69
2023/08/14 05:04:15;;;;;;;4.80;4.40;;;;;;;17.10;77.52;101356.34;5013203;28;20040;-69
2023/08/14 05:06:44;;;;;;;5.88;4.72;;;;;;;17.14;76.78;101354.34;5009795;28;20120;-69
2023/08/14 05:09:10;;;;;;;6.15;4.70;;;;;;;17.20;76.96;101352.16;5009650;28;20558;-69
2023/08/14 05:11:35;;;;;;;6.85;5.65;;;;;;;17.28;76.84;101357.06;5010293;28;20030;-70
2023/08/14 05:14:00;;;;;;;7.07;5.97;;;;;;;17.40;77.61;101348.31;5014719;28;20391;-69
2023/08/14 05:16:25;;;;;;;7.43;6.20;;;;;;;17.44;77.44;101341.81;5015664;28;20486;-69
2023/08/14 05:18:51;;;;;;;7.45;5.78;;;;;;;17.54;76.93;101347.47;5010299;28;20026;-69
2023/08/14 05:21:16;;;;;;;8.43;6.18;;;;;;;17.60;77.35;101342.59;5012544;28;20032;-69
2023/08/14 05:23:42;;;;;;;7.47;6.20;;;;;;;17.67;79.51;101348.41;4997749;28;20107;-69
2023/08/14 05:26:07;;;;;;;10.63;7.85;;;;;;;17.70;78.68;101352.72;5013825;28;20013;-69
2023/08/14 05:28:32;;;;;;;10.38;7.40;;;;;;;17.72;78.65;101343.66;5008644;28;20030;-69
2023/08/14 05:30:57;;;;;;;10.88;7.30;;;;;;;17.84;78.23;101342.06;5008466;28;20153;-69
2023/08/14 05:33:23;;;;;;;13.65;7.75;;;;;;;17.92;77.59;101344.25;5016694;28;20030;-69
2023/08/14 05:35:49;;;;;;;9.90;7.00;;;;;;;18.03;77.65;101349.78;5006452;28;20029;-69
2023/08/14 05:38:15;;;;;;;9.07;6.97;;;;;;;18.15;78.12;101354.38;5009688;28;20034;-69
2023/08/14 05:40:40;;;;;;;9.50;7.22;;;;;;;18.22;79.03;101362.84;5017291;28;20033;-69
2023/08/14 05:43:10;;;;;;;9.50;8.18;;;;;;;18.30;79.30;101360.53;5017785;28;20021;-69
2023/08/14 05:45:43;;;;;;;10.73;8.02;;;;;;;18.34;77.54;101362.94;5009188;28;20029;-68
2023/08/14 05:48:09;;;;;;;12.48;8.48;;;;;;;18.21;78.71;101372.69;5011738;28;20481;-69
2023/08/14 05:50:36;;;;;;;10.35;7.47;;;;;;;18.15;78.59;101367.75;5019705;28;20014;-71
2023/08/14 05:53:06;;;;;;;9.00;8.00;;;;;;;18.21;78.12;101377.19;5016841;28;20030;-71
2023/08/14 05:55:36;;;;;;;10.32;8.10;;;;;;;18.26;78.61;101373.25;5016823;28;20041;-71
2023/08/14 05:58:03;;;;;;;14.00;8.15;;;;;;;18.28;80.19;101376.72;5010709;28;20032;-71
2023/08/14 06:00:29;;;;;;;12.05;8.25;;;;;;;18.26;78.79;101388.47;5012203;28;20029;-71
2023/08/14 06:02:54;;;;;;;11.15;7.80;;;;;;;18.24;78.88;101385.03;5017776;28;20041;-71
2023/08/14 06:05:21;;;;;;;11.05;8.75;;;;;;;18.27;79.42;101388.34;5011727;28;20046;-71
2023/08/14 06:07:48;;;;;;;13.00;8.20;;;;;;;18.33;78.08;101395.16;5014271;28;20116;-71
2023/08/14 06:10:13;;;;;;;12.18;8.68;;;;;;;18.36;78.11;101387.78;5016654;28;20045;-71
2023/08/14 06:12:38;;;;;;;13.68;9.70;;;;;;;18.33;79.60;101395.16;5008499;28;20076;-72
2023/08/14 06:15:04;;;;;;;14.18;9.20;;;;;;;18.31;78.94;101397.91;5009165;28;20346;-71
2023/08/14 06:17:32;;;;;;;14.50;9.68;;;;;;;18.26;80.45;101401.84;5012581;28;20049;-71
2023/08/14 06:19:57;;;;;;;11.85;9.15;;;;;;;18.28;79.88;101403.50;5012783;28;20034;-71
2023/08/14 06:22:22;;;;;;;12.07;10.77;;;;;;;18.29;80.32;101391.81;5008050;28;20504;-71
2023/08/14 06:24:47;;;;;;;13.20;10.25;;;;;;;18.37;79.08;101391.31;5007112;28;20497;-71
2023/08/14 06:27:13;;;;;;;13.82;9.82;;;;;;;18.47;79.50;101388.94;5010855;28;20026;-71
2023/08/14 06:29:38;;;;;;;12.45;10.13;;;;;;;18.54;78.12;101388.41;5006499;28;20512;-71
2023/08/14 06:32:05;;;;;;;13.30;10.20;;;;;;;18.61;78.34;101379.03;5010832;28;20034;-71
2023/08/14 06:34:31;;;;;;;13.57;10.57;;;;;;;18.75;78.97;101378.16;5015608;28;20059;-71
2023/08/14 06:36:56;;;;;;;12.52;10.73;;;;;;;18.91;78.87;101375.31;5012519;28;20017;-72
2023/08/14 06:39:21;;;;;;;17.80;12.35;;;;;;;19.02;78.25;101377.25;5002529;28;20150;-72
2023/08/14 06:41:46;;;;;;;16.45;11.95;;;;;;;19.21;78.66;101384.94;5013392;28;20029;-72
2023/08/14 06:44:12;;;;;;;17.15;12.98;;;;;;;19.45;78.28;101382.41;5017328;28;20064;-71
2023/08/14 06:46:38;;;;;;;16.48;11.70;;;;;;;19.54;77.32;101366.56;5010795;28;20091;-72
2023/08/14 06:49:04;;;;;;;15.68;11.70;;;;;;;19.58;76.61;101364.50;5011905;28;20477;-71
2023/08/14 06:51:29;;;;;;;13.43;11.82;;;;;;;19.60;76.61;101371.50;5012304;28;20032;-72
2023/08/14 06:53:55;;;;;;;15.18;11.88;;;;;;;19.64;76.46;101366.81;5019896;28;20202;-72
2023/08/14 06:56:20;;;;;;;13.35;10.35;;;;;;;19.75;76.42;101371.41;5007891;28;20085;-72
2023/08/14 06:58:45;;;;;;;15.52;10.98;;;;;;;19.80;76.09;101372.78;5010295;28;20113;-72
2023/08/14 07:01:11;;;;;;;14.60;10.25;;;;;;;19.92;75.67;101365.72;5003190;28;20033;-70
2023/08/14 07:03:36;;;;;;;13.60;10.52;;;;;;;20.10;75.31;101360.88;5007093;28;20041;-70
2023/08/14 07:06:02;;;;;;;13.82;10.38;;;;;;;20.35;75.91;101368.84;5001915;28;20041;-69
2023/08/14 07:08:28;;;;;;;14.80;11.05;;;;;;;20.72;75.33;101373.38;5005139;28;20044;-69
2023/08/14 07:10:53;;;;;;;18.13;11.23;;;;;;;20.98;73.02;101374.09;5004656;28;20480;-70
2023/08/14 07:13:19;;;;;;;14.75;10.93;;;;;;;21.09;73.66;101375.00;5004455;28;20497;-70
2023/08/14 07:15:47;;;;;;;16.27;10.57;;;;;;;21.10;72.02;101363.28;5011180;28;20017;-70
2023/08/14 07:18:14;;;;;;;14.68;9.63;;;;;;;21.03;72.45;101366.53;5006459;28;20349;-70
2023/08/14 07:20:39;;;;;;;16.02;9.73;;;;;;;20.79;72.82;101378.16;4999210;28;21225;-69
2023/08/14 07:23:05;;;;;;;11.73;8.75;;;;;;;20.95;71.43;101363.59;5006176;28;20112;-70
2023/08/14 07:25:31;;;;;;;15.63;9.82;;;;;;;20.98;71.80;101360.66;5003512;28;20477;-70
2023/08/14 07:27:56;;;;;;;12.15;8.65;;;;;;;21.04;72.40;101365.59;5013150;28;20083;-70
2023/08/14 07:30:22;;;;;;;11.60;7.65;;;;;;;21.08;70.54;101361.69;5010243;28;20028;-70
2023/08/14 07:32:48;;;;;;;13.40;8.50;;;;;;;21.08;71.89;101365.25;5014751;28;20081;-70
2023/08/14 07:35:13;;;;;;;11.30;7.97;;;;;;;21.18;71.12;101375.28;5012580;28;20046;-70
2023/08/14 07:37:38;;;;;;;14.93;7.80;;;;;;;21.26;69.83;101378.22;5015522;28;20115;-70
2023/08/14 07:40:06;;;;;;;10.20;7.15;;;;;;;21.24;71.17;101389.13;5018166;28;20496;-70
2023/08/14 07:42:31;;;;;;;12.82;7.28;;;;;;;21.29;69.58;101384.25;5010624;28;20114;-70
2023/08/14 07:44:57;;;;;;;9.30;6.80;;;;;;;21.46;69.92;101399.13;5016805;28;20066;-70
2023/08/14 07:47:22;;;;;;;10.77;7.20;;;;;;;21.57;69.86;101396.44;5007982;28;20123;-71
2023/08/14 07:49:48;;;;;;;10.38;6.35;;;;;;;21.83;67.89;101394.44;5018130;28;20024;-70
2023/08/14 07:52:13;;;;;;;11.52;5.78;;;;;;;22.23;65.69;101388.56;5009198;28;20049;-71
2023/08/14 07:54:38;;;;;;;10.20;5.18;;;;;;;22.66;63.59;101390.47;5021520;28;20029;-70
2023/08/14 07:57:04;;;;;;;11.45;5.35;;;;;;;23.10;62.32;101384.09;5009208;28;20053;-71
2023/08/14 07:59:29;;;;;;;10.38;5.03;;;;;;;23.34;61.65;101391.94;5015344;28;20026;-71
2023/08/14 08:01:54;;;;;;;7.55;3.80;;;;;;;23.74;59.92;101388.56;5007932;28;20039;-71
2023/08/14 08:04:20;;;;;;;8.85;4.00;;;;;;;23.95;57.84;101384.97;5014818;28;20518;-72
2023/08/14 08:06:45;;;;;;;10.43;4.95;;;;;;;24.39;58.12;101384.59;5009825;28;20041;-71
2023/08/14 08:09:11;;;;;;;8.93;4.13;;;;;;;24.57;56.43;101376.66;5023164;28;20096;-71
2023/08/14 08:11:37;;;;;;;9.10;3.70;;;;;;;24.86;55.38;101384.84;5017066;28;20767;-72
2023/08/14 08:14:05;;;;;;;8.02;3.38;;;;;;;25.28;54.22;101383.72;5018358;28;20029;-73
2023/08/14 08:16:34;;;;;;;6.40;3.70;;;;;;;25.66;55.15;101383.66;5013360;28;20507;-73
2023/08/14 08:19:04;;;;;;;4.63;2.90;;;;;;;25.94;54.24;101376.47;5010253;28;20067;-73
2023/08/14 08:21:29;;;;;;;5.47;2.72;;;;;;;26.37;51.47;101374.13;5014225;28;20036;-73
2023/08/14 08:23:55;;;;;;;6.95;2.88;;;;;;;26.48;50.46;101367.66;5015578;28;20030;-72
2023/08/14 08:26:20;;;;;;;5.63;2.80;;;;;;;26.55;50.46;101375.03;5016159;28;20108;-72
2023/08/14 08:28:45;;;;;;;5.47;2.70;;;;;;;26.68;48.30;101370.09;5005614;28;20065;-72
2023/08/14 08:31:11;;;;;;;5.10;2.33;;;;;;;26.84;47.41;101358.56;5014435;28;20057;-73
2023/08/14 08:33:36;;;;;;;4.20;2.53;;;;;;;27.38;46.77;101362.09;5007894;28;20300;-72
2023/08/14 08:36:01;;;;;;;6.25;2.55;;;;;;;27.57;46.68;101355.63;5005843;28;20022;-72
2023/08/14 08:38:26;;;;;;;5.25;2.13;;;;;;;27.89;45.69;101357.72;5005688;28;20579;-72
2023/08/14 08:40:52;;;;;;;7.70;2.50;;;;;;;28.22;44.14;101357.84;5004583;28;20081;-72
2023/08/14 08:43:20;;;;;;;5.38;2.10;;;;;;;28.73;44.07;101355.97;5009683;28;20318;-74
2023/08/14 08:45:50;;;;;;;5.70;2.20;;;;;;;28.87;42.31;101349.88;5002187;28;20149;-72
2023/08/14 08:48:21;;;;;;;4.78;2.28;;;;;;;29.09;44.01;101347.53;5011859;28;20068;-73
2023/08/14 08:50:48;;;;;;;6.17;2.03;;;;;;;29.05;41.88;101354.31;5014255;28;20532;-73
2023/08/14 08:53:14;;;;;;;4.85;1.67;;;;;;;29.54;41.37;101354.28;5010352;28;20041;-76
2023/08/14 08:55:40;;;;;;;8.60;3.53;;;;;;;30.07;41.67;101359.09;5007770;28;20076;-71
2023/08/14 08:58:07;;;;;;;4.78;1.70;;;;;;;30.53;37.85;101347.50;5009073;28;20041;-73
2023/08/14 09:00:32;;;;;;;6.82;2.40;;;;;;;30.38;38.90;101342.78;5006626;28;20185;-74
2023/08/14 09:02:57;;;;;;;8.27;2.40;;;;;;;30.58;37.76;101336.88;5012642;28;20183;-75
2023/08/14 09:05:23;;;;;;;9.32;2.53;;;;;;;30.81;37.44;101339.66;5017968;28;20500;-75
2023/08/14 09:07:49;;;;;;;5.93;1.80;;;;;;;31.22;37.10;101341.00;5010885;28;20034;-76
2023/08/14 09:10:15;;;;;;;5.40;2.25;;;;;;;31.33;37.51;101342.47;5014191;28;20493;-74
2023/08/14 09:12:40;;;;;;;5.88;2.00;;;;;;;31.63;35.30;101340.63;5005993;28;20056;-73
2023/08/14 09:15:07;;;;;;;4.03;1.80;;;;;;;31.95;35.51;101339.44;5003266;28;20022;-74
2023/08/14 09:17:33;;;;;;;4.75;1.73;;;;;;;32.09;35.13;101336.88;5005660;28;20022;-75
2023/08/14 09:19:59;;;;;;;15.82;4.60;;;;;;;32.70;34.93;101338.25;5009082;28;20072;-72
2023/08/14 09:22:28;;;;;;;6.47;1.67;;;;;;;32.80;33.53;101331.59;5010235;28;20034;-72
2023/08/14 09:24:55;;;;;;;15.50;2.78;;;;;;;33.08;33.51;101331.69;5011559;28;20501;-74
2023/08/14 09:27:22;;;;;;;4.28;1.88;;;;;;;33.44;33.15;101337.91;5011269;28;20453;-75
2023/08/14 09:29:52;;;;;;;14.27;3.67;;;;;;;33.21;32.01;101335.38;5007581;28;20036;-73
2023/08/14 09:32:21;;;;;;;6.20;1.85;;;;;;;33.48;32.35;101332.84;5012358;28;20137;-75
2023/08/14 09:34:47;;;;;;;11.75;3.00;;;;;;;33.71;32.02;101336.16;5008497;28;20117;-70
2023/08/14 09:37:12;;;;;;;27.77;4.85;;;;;;;33.82;30.61;101351.22;5008587;28;20152;-75
2023/08/14 09:39:37;;;;;;;36.10;6.55;;;;;;;34.13;31.21;101344.44;5014074;28;20026;-76
2023/08/14 09:42:03;;;;;;;4.50;1.37;;;;;;;34.01;32.59;101353.25;5007869;28;20029;-77
2023/08/14 09:44:29;;;;;;;4.15;1.70;;;;;;;33.99;31.52;101360.00;5011943;28;20298;-77
2023/08/14 09:46:59;;;;;;;4.75;2.05;;;;;;;33.81;31.48;101360.53;5004287;28;20104;-77
2023/08/14 09:49:27;;;;;;;5.75;1.80;;;;;;;32.79;33.77;101363.63;5003566;28;20026;-75
2023/08/14 09:51:56;;;;;;;12.43;3.13;;;;;;;32.03;34.75;101354.03;5001844;28;20033;-76
2023/08/14 09:54:32;;;;;;;5.97;2.20;;;;;;;31.80;36.50;101346.75;5006172;28;20066;-76
2023/08/14 09:56:59;;;;;;;3.10;1.60;;;;;;;31.52;34.23;101357.47;4992139;28;20025;-75
2023/08/14 09:59:26;;;;;;;4.18;1.45;;;;;;;31.41;31.67;101349.75;4999087;28;20026;-76
2023/08/14 10:01:54;;;;;;;1.80;1.30;;;;;;;30.85;35.30;101341.84;5003839;28;20065;-74
2023/08/14 10:04:22;;;;;;;3.10;1.20;;;;;;;30.87;36.26;101333.44;5009725;28;20033;-74
2023/08/14 10:06:48;;;;;;;6.00;1.65;;;;;;;31.46;36.29;101333.63;5009323;28;20073;-75
2023/08/14 10:09:14;;;;;;;3.78;1.42;;;;;;;31.59;34.99;101328.38;5002930;28;20026;-74
2023/08/14 10:11:40;;;;;;;6.20;1.50;;;;;;;31.74;33.10;101326.50;5010847;28;20026;-76
2023/08/14 10:14:06;;;;;;;5.28;1.48;;;;;;;31.71;36.28;101313.22;4986129;28;21498;-77
2023/08/14 10:16:38;;;;;;;2.45;1.52;;;;;;;31.75;35.18;101309.03;5003021;28;20041;-78
2023/08/14 10:19:04;;;;;;;;;;;;;;;32.09;35.63;101309.53;4993178;28;20036;-77
2023/08/14 10:21:32;;;;;;;4.63;1.27;;;;;;;32.19;32.16;101299.13;5008489;28;19918;-73
2023/08/14 10:24:02;;;;;;;2.85;1.25;;;;;;;31.75;32.70;101300.00;5009077;28;20030;-76
2023/08/14 10:26:28;;;;;;;3.35;1.40;;;;;;;31.21;32.52;101292.03;4995076;28;20034;-76
2023/08/14 10:28:55;;;;;;;3.05;1.52;;;;;;;31.09;35.42;101288.03;4996023;28;20480;-77
2023/08/14 10:31:21;;;;;;;4.40;1.40;;;;;;;31.28;33.67;101284.81;4997182;28;20030;-76
2023/08/14 10:33:47;;;;;;;4.05;1.30;;;;;;;30.95;33.54;101287.81;5004133;28;20040;-75
2023/08/14 10:36:19;;;;;;;3.72;1.70;;;;;;;31.32;33.56;101277.09;5004980;28;20584;-79
2023/08/14 10:38:48;;;;;;;3.38;1.38;;;;;;;31.52;35.22;101266.44;5009301;28;20026;-75
2023/08/14 10:41:16;;;;;;;4.72;1.50;;;;;;;31.94;32.50;101263.91;5011993;28;20030;-76
2023/08/14 10:43:42;;;;;;;40.13;4.05;;;;;;;32.06;33.89;101263.41;5010318;28;20026;-78
2023/08/14 10:46:14;;;;;;;5.63;1.60;;;;;;;32.07;32.05;101260.47;5009478;28;20025;-75
2023/08/14 10:48:41;;;;;;;2.85;1.20;;;;;;;31.80;33.17;101272.06;5012137;28;20025;-75
2023/08/14 10:51:12;;;;;;;5.25;1.52;;;;;;;31.94;33.85;101260.28;5005725;28;20698;-76
2023/08/14 10:53:40;;;;;;;9.88;2.00;;;;;;;31.96;34.39;101266.44;5013528;28;20037;-76
2023/08/14 10:56:06;;;;;;;4.35;1.40;;;;;;;32.26;31.82;101272.66;5003156;28;20025;-75
2023/08/14 10:58:41;;;;;;;80.47;7.43;;;;;;;32.11;33.38;101272.72;5003417;28;20117;-75
2023/08/14 11:01:08;;;;;;;4.78;1.77;;;;;;;32.24;32.51;101266.56;5002540;28;20430;-77
2023/08/14 11:03:54;;;;;;;27.08;3.05;;;;;;;32.35;33.39;101268.78;4989436;28;20044;-76
2023/08/14 11:06:28;;;;;;;4.43;1.77;;;;;;;32.23;34.55;101267.59;4989469;28;20046;-77
2023/08/14 11:09:04;;;;;;;10.65;2.13;;;;;;;32.25;30.94;101265.50;4992086;28;20038;-75
2023/08/14 11:11:30;;;;;;;4.40;1.75;;;;;;;32.45;32.59;101273.97;4992319;28;20109;-76
2023/08/14 11:13:56;;;;;;;5.20;2.10;;;;;;;32.27;31.31;101268.91;4994106;28;20532;-77
2023/08/14 11:16:21;;;;;;;3.60;1.48;;;;;;;32.12;32.49;101277.16;4988821;28;20037;-78
2023/08/14 11:18:47;;;;;;;5.55;1.73;;;;;;;32.24;32.29;101272.03;4992020;28;20069;-77